createdAt,value
2018-12-15T00:00:38.711Z,100
2018-12-15T00:01:41.036Z,100
2018-12-15T00:02:43.065Z,100
2018-12-15T00:03:45.145Z,100
2018-12-15T00:04:47.456Z,100
2018-12-15T00:05:49.486Z,100
2018-12-15T00:06:51.498Z,100
2018-12-15T00:07:53.519Z,100
2018-12-15T00:08:55.554Z,100
2018-12-15T00:09:57.572Z,100
2018-12-15T00:10:59.883Z,100
2018-12-15T00:12:01.903Z,100
2018-12-15T00:13:03.927Z,100
2018-12-15T00:14:05.949Z,100
2018-12-15T00:15:07.984Z,100
2018-12-15T00:16:10.276Z,100
2018-12-15T00:17:12.309Z,100
2018-12-15T00:18:14.337Z,100
2018-12-15T00:19:16.351Z,100
2018-12-15T00:20:18.391Z,100
2018-12-15T00:21:20.699Z,100
2018-12-15T00:22:22.721Z,100
2018-12-15T00:23:25.026Z,100
2018-12-15T00:24:27.066Z,100
2018-12-15T00:25:29.081Z,100
2018-12-15T00:26:31.668Z,100
2018-12-15T00:27:33.692Z,100
2018-12-15T00:28:36.106Z,100
2018-12-15T00:29:38.404Z,100
2018-12-15T00:30:40.706Z,100
2018-12-15T00:31:42.735Z,100
2018-12-15T00:32:44.779Z,100
2018-12-15T00:33:46.796Z,100
2018-12-15T00:34:48.822Z,100
2018-12-15T00:35:50.850Z,100
2018-12-15T00:36:52.878Z,100
2018-12-15T00:37:54.902Z,100
2018-12-15T00:38:56.937Z,100
2018-12-15T00:39:58.941Z,100
2018-12-15T00:41:00.973Z,100
2018-12-15T00:42:02.998Z,100
2018-12-15T00:43:05.019Z,100
2018-12-15T00:44:07.714Z,100
2018-12-15T00:45:11.320Z,100
2018-12-15T00:46:14.802Z,100
2018-12-15T00:47:16.826Z,100
2018-12-15T00:48:20.357Z,100
2018-12-15T00:49:23.408Z,100
2018-12-15T00:50:25.436Z,100
2018-12-15T00:51:27.849Z,100
2018-12-15T00:52:34.873Z,100
2018-12-15T00:53:39.349Z,100
2018-12-15T00:54:41.368Z,100
2018-12-15T00:55:43.392Z,100
2018-12-15T00:56:45.402Z,100
2018-12-15T00:57:47.449Z,100
2018-12-15T00:58:49.477Z,100
2018-12-15T00:59:51.496Z,100
2018-12-15T01:00:53.532Z,100
2018-12-15T01:01:55.551Z,100
2018-12-15T01:02:57.641Z,100
2018-12-15T01:03:59.669Z,100
2018-12-15T01:05:02.094Z,100
2018-12-15T01:06:04.394Z,100
2018-12-15T01:07:09.006Z,100
2018-12-15T01:08:13.199Z,100
2018-12-15T01:09:15.220Z,100
2018-12-15T01:10:17.256Z,100
2018-12-15T01:11:19.661Z,100
2018-12-15T01:12:21.681Z,100
2018-12-15T01:13:23.713Z,100
2018-12-15T01:14:26.015Z,100
2018-12-15T01:15:28.413Z,100
2018-12-15T01:16:30.431Z,100
2018-12-15T01:17:32.445Z,100
2018-12-15T01:18:34.754Z,100
2018-12-15T01:19:36.781Z,100
2018-12-15T01:20:38.805Z,100
2018-12-15T01:21:41.108Z,100
2018-12-15T01:22:43.202Z,100
2018-12-15T01:23:45.226Z,100
2018-12-15T01:24:47.246Z,100
2018-12-15T01:25:49.288Z,100
2018-12-15T01:26:51.303Z,100
2018-12-15T01:27:53.335Z,100
2018-12-15T01:28:55.356Z,100
2018-12-15T01:29:57.664Z,100
2018-12-15T01:30:59.674Z,100
2018-12-15T01:32:01.704Z,100
2018-12-15T01:33:04.014Z,100
2018-12-15T01:34:06.032Z,100
2018-12-15T01:35:08.063Z,100
2018-12-15T01:36:10.093Z,100
2018-12-15T01:37:12.392Z,100
2018-12-15T01:38:14.410Z,100
2018-12-15T01:39:16.457Z,100
2018-12-15T01:40:18.472Z,100
2018-12-15T01:41:20.496Z,100
2018-12-15T01:42:22.519Z,100
2018-12-15T01:43:24.533Z,100
2018-12-15T01:44:26.558Z,100
2018-12-15T01:45:28.600Z,100
2018-12-15T01:46:30.918Z,100
2018-12-15T01:47:32.964Z,100
2018-12-15T01:48:35.018Z,100
2018-12-15T01:49:37.040Z,100
2018-12-15T01:50:39.065Z,100
2018-12-15T01:51:41.114Z,100
2018-12-15T01:52:43.145Z,100
2018-12-15T01:53:45.172Z,100
2018-12-15T01:54:47.202Z,100
2018-12-15T01:55:49.243Z,100
2018-12-15T01:56:51.651Z,100
2018-12-15T01:57:53.674Z,100
2018-12-15T01:58:55.701Z,100
2018-12-15T01:59:57.789Z,100
2018-12-15T02:01:00.199Z,100
2018-12-15T02:02:02.521Z,100
2018-12-15T02:03:04.554Z,100
2018-12-15T02:04:06.561Z,100
2018-12-15T02:05:08.870Z,100
2018-12-15T02:06:10.899Z,100
2018-12-15T02:07:12.911Z,100
2018-12-15T02:08:14.939Z,100
2018-12-15T02:09:16.958Z,100
2018-12-15T02:10:18.979Z,100
2018-12-15T02:11:21.575Z,100
2018-12-15T02:12:23.622Z,100
2018-12-15T02:13:25.937Z,100
2018-12-15T02:14:27.963Z,100
2018-12-15T02:15:29.993Z,100
2018-12-15T02:16:32.007Z,100
2018-12-15T02:17:34.718Z,100
2018-12-15T02:18:36.748Z,100
2018-12-15T02:19:38.758Z,100
2018-12-15T02:20:40.777Z,100
2018-12-15T02:21:42.806Z,100
2018-12-15T02:22:44.831Z,100
2018-12-15T02:23:46.843Z,100
2018-12-15T02:24:48.866Z,100
2018-12-15T02:25:50.886Z,100
2018-12-15T02:26:52.910Z,100
2018-12-15T02:27:54.921Z,100
2018-12-15T02:28:56.958Z,100
2018-12-15T02:29:58.976Z,100
2018-12-15T02:31:00.999Z,100
2018-12-15T02:32:03.335Z,100
2018-12-15T02:33:05.349Z,100
2018-12-15T02:34:07.373Z,100
2018-12-15T02:35:09.397Z,100
2018-12-15T02:36:11.730Z,100
2018-12-15T02:37:13.746Z,100
2018-12-15T02:38:15.778Z,100
2018-12-15T02:39:17.801Z,100
2018-12-15T02:40:19.834Z,100
2018-12-15T02:41:22.432Z,100
2018-12-15T02:42:24.460Z,100
2018-12-15T02:43:26.475Z,100
2018-12-15T02:44:28.881Z,100
2018-12-15T02:45:30.915Z,100
2018-12-15T02:46:32.953Z,100
2018-12-15T02:47:42.755Z,100
2018-12-15T02:48:44.778Z,100
2018-12-15T02:49:47.088Z,100
2018-12-15T02:50:49.115Z,100
2018-12-15T02:51:51.146Z,100
2018-12-15T02:52:53.159Z,100
2018-12-15T02:53:55.468Z,100
2018-12-15T02:54:57.501Z,100
2018-12-15T02:55:59.583Z,100
2018-12-15T02:57:01.632Z,100
2018-12-15T02:58:04.016Z,100
2018-12-15T02:59:06.388Z,100
2018-12-15T03:00:08.406Z,100
2018-12-15T03:01:10.710Z,100
2018-12-15T03:02:12.747Z,100
2018-12-15T03:03:14.768Z,100
2018-12-15T03:04:16.804Z,100
2018-12-15T03:05:18.860Z,100
2018-12-15T03:06:20.885Z,100
2018-12-15T03:07:22.913Z,100
2018-12-15T03:08:24.944Z,100
2018-12-15T03:09:27.075Z,100
2018-12-15T03:10:29.092Z,100
2018-12-15T03:11:31.690Z,100
2018-12-15T03:12:33.995Z,100
2018-12-15T03:13:36.392Z,100
2018-12-15T03:14:38.421Z,100
2018-12-15T03:15:40.447Z,100
2018-12-15T03:16:42.466Z,100
2018-12-15T03:17:49.851Z,100
2018-12-15T03:18:52.203Z,100
2018-12-15T03:19:54.529Z,100
2018-12-15T03:20:56.851Z,100
2018-12-15T03:21:59.263Z,100
2018-12-15T03:23:01.350Z,100
2018-12-15T03:24:03.438Z,100
2018-12-15T03:25:06.059Z,100
2018-12-15T03:26:08.073Z,100
2018-12-15T03:27:10.097Z,100
2018-12-15T03:28:12.136Z,100
2018-12-15T03:29:14.446Z,100
2018-12-15T03:30:17.479Z,100
2018-12-15T03:31:19.801Z,100
2018-12-15T03:32:22.652Z,100
2018-12-15T03:33:24.828Z,100
2018-12-15T03:34:26.863Z,100
2018-12-15T03:35:28.875Z,100
2018-12-15T03:36:31.180Z,100
2018-12-15T03:37:34.066Z,100
2018-12-15T03:38:36.091Z,100
2018-12-15T03:39:38.149Z,100
2018-12-15T03:40:40.176Z,100
2018-12-15T03:41:42.595Z,100
2018-12-15T03:42:44.609Z,100
2018-12-15T03:43:46.660Z,100
2018-12-15T03:44:48.673Z,100
2018-12-15T03:45:50.989Z,100
2018-12-15T03:46:53.319Z,100
2018-12-15T03:47:57.259Z,100
2018-12-15T03:48:59.601Z,100
2018-12-15T03:50:01.937Z,100
2018-12-15T03:51:04.686Z,100
2018-12-15T03:52:06.697Z,100
2018-12-15T03:53:08.729Z,100
2018-12-15T03:54:10.746Z,100
2018-12-15T03:55:12.763Z,100
2018-12-15T03:56:15.200Z,100
2018-12-15T03:57:17.266Z,100
2018-12-15T03:58:19.863Z,100
2018-12-15T03:59:22.887Z,100
2018-12-15T04:00:24.910Z,100
2018-12-15T04:01:26.935Z,100
2018-12-15T04:02:28.971Z,100
2018-12-15T04:03:30.980Z,100
2018-12-15T04:04:33.413Z,100
2018-12-15T04:05:35.490Z,100
2018-12-15T04:06:37.547Z,100
2018-12-15T04:07:39.834Z,100
2018-12-15T04:08:42.167Z,100
2018-12-15T04:09:44.192Z,100
2018-12-15T04:10:46.497Z,100
2018-12-15T04:11:48.833Z,100
2018-12-15T04:12:50.860Z,100
2018-12-15T04:13:52.887Z,100
2018-12-15T04:14:55.208Z,100
2018-12-15T04:15:57.256Z,100
2018-12-15T04:16:59.280Z,100
2018-12-15T04:18:04.689Z,100
2018-12-15T04:19:06.993Z,100
2018-12-15T04:20:09.032Z,100
2018-12-15T04:21:11.742Z,100
2018-12-15T04:22:13.786Z,100
2018-12-15T04:23:15.856Z,100
2018-12-15T04:24:17.881Z,100
2018-12-15T04:25:19.890Z,100
2018-12-15T04:26:21.917Z,100
2018-12-15T04:27:23.931Z,100
2018-12-15T04:28:25.952Z,100
2018-12-15T04:29:28.272Z,100
2018-12-15T04:30:30.575Z,100
2018-12-15T04:31:32.596Z,100
2018-12-15T04:32:35.022Z,100
2018-12-15T04:33:37.059Z,100
2018-12-15T04:34:39.095Z,100
2018-12-15T04:35:41.117Z,100
2018-12-15T04:36:43.134Z,100
2018-12-15T04:37:45.162Z,100
2018-12-15T04:38:47.209Z,100
2018-12-15T04:39:49.621Z,100
2018-12-15T04:40:51.631Z,100
2018-12-15T04:41:54.290Z,100
2018-12-15T04:42:56.319Z,100
2018-12-15T04:43:58.620Z,100
2018-12-15T04:45:00.948Z,100
2018-12-15T04:46:03.350Z,100
2018-12-15T04:47:05.379Z,100
2018-12-15T04:48:12.289Z,100
2018-12-15T04:49:14.327Z,100
2018-12-15T04:50:17.002Z,100
2018-12-15T04:51:19.327Z,100
2018-12-15T04:52:21.458Z,100
2018-12-15T04:53:23.751Z,100
2018-12-15T04:54:25.775Z,100
2018-12-15T04:55:27.804Z,100
2018-12-15T04:56:30.278Z,100
2018-12-15T04:57:32.305Z,100
2018-12-15T04:58:34.609Z,100
2018-12-15T04:59:36.635Z,100
2018-12-15T05:00:38.654Z,100
2018-12-15T05:01:40.948Z,100
2018-12-15T05:02:44.971Z,100
2018-12-15T05:03:47.353Z,100
2018-12-15T05:04:49.372Z,100
2018-12-15T05:05:51.476Z,100
2018-12-15T05:06:53.499Z,100
2018-12-15T05:07:55.517Z,100
2018-12-15T05:08:57.945Z,100
2018-12-15T05:10:00.287Z,100
2018-12-15T05:11:02.313Z,100
2018-12-15T05:12:04.343Z,100
2018-12-15T05:13:06.671Z,100
2018-12-15T05:14:09.450Z,100
2018-12-15T05:15:11.480Z,100
2018-12-15T05:16:13.497Z,100
2018-12-15T05:17:15.523Z,100
2018-12-15T05:18:19.631Z,100
2018-12-15T05:19:21.934Z,100
2018-12-15T05:20:24.002Z,100
2018-12-15T05:21:26.052Z,100
2018-12-15T05:22:28.089Z,100
2018-12-15T05:23:30.098Z,100
2018-12-15T05:24:32.124Z,100
2018-12-15T05:25:34.451Z,100
2018-12-15T05:26:36.468Z,100
2018-12-15T05:27:38.502Z,100
2018-12-15T05:28:40.521Z,100
2018-12-15T05:29:42.535Z,100
2018-12-15T05:30:44.567Z,100
2018-12-15T05:31:46.603Z,100
2018-12-15T05:32:49.010Z,100
2018-12-15T05:33:51.036Z,100
2018-12-15T05:34:53.057Z,100
2018-12-15T05:35:55.091Z,100
2018-12-15T05:36:58.070Z,100
2018-12-15T05:38:00.371Z,100
2018-12-15T05:39:02.423Z,100
2018-12-15T05:40:04.451Z,100
2018-12-15T05:41:06.851Z,99
2018-12-15T05:42:08.873Z,99
2018-12-15T05:43:10.890Z,100
2018-12-15T05:44:12.914Z,99
2018-12-15T05:45:14.990Z,100
2018-12-15T05:46:17.015Z,99
2018-12-15T05:47:19.414Z,99
2018-12-15T05:48:26.532Z,99
2018-12-15T05:49:28.555Z,99
2018-12-15T05:50:30.572Z,99
2018-12-15T05:51:32.599Z,98
2018-12-15T05:52:34.617Z,98
2018-12-15T05:53:36.641Z,98
2018-12-15T05:54:38.661Z,98
2018-12-15T05:55:40.695Z,98
2018-12-15T05:56:42.716Z,98
2018-12-15T05:57:44.746Z,97
2018-12-15T05:58:46.771Z,97
2018-12-15T05:59:48.787Z,97
2018-12-15T06:00:50.861Z,97
2018-12-15T06:01:52.883Z,97
2018-12-15T06:02:55.195Z,97
2018-12-15T06:03:57.218Z,97
2018-12-15T06:04:59.255Z,97
2018-12-15T06:06:01.268Z,97
2018-12-15T06:07:03.575Z,97
2018-12-15T06:08:05.597Z,97
2018-12-15T06:09:07.897Z,96
2018-12-15T06:10:09.918Z,96
2018-12-15T06:11:12.229Z,96
2018-12-15T06:12:14.245Z,96
2018-12-15T06:13:16.271Z,96
2018-12-15T06:14:18.304Z,96
2018-12-15T06:15:20.330Z,96
2018-12-15T06:16:22.364Z,96
2018-12-15T06:17:24.383Z,96
2018-12-15T06:18:32.583Z,96
2018-12-15T06:19:34.606Z,97
2018-12-15T06:20:36.645Z,96
2018-12-15T06:21:38.654Z,96
2018-12-15T06:22:40.678Z,96
2018-12-15T06:23:42.707Z,96
2018-12-15T06:24:44.731Z,96
2018-12-15T06:25:46.769Z,95
2018-12-15T06:26:48.786Z,95
2018-12-15T06:27:50.811Z,95
2018-12-15T06:28:53.486Z,95
2018-12-15T06:29:55.788Z,95
2018-12-15T06:30:57.816Z,95
2018-12-15T06:31:59.835Z,95
2018-12-15T06:33:01.870Z,95
2018-12-15T06:34:04.164Z,95
2018-12-15T06:35:06.188Z,94
2018-12-15T06:36:08.211Z,95
2018-12-15T06:37:10.239Z,94
2018-12-15T06:38:12.245Z,94
2018-12-15T06:39:14.269Z,95
2018-12-15T06:40:16.284Z,95
2018-12-15T06:41:18.315Z,94
2018-12-15T06:42:20.621Z,94
2018-12-15T06:43:22.688Z,94
2018-12-15T06:44:25.094Z,94
2018-12-15T06:45:27.121Z,94
2018-12-15T06:46:29.139Z,94
2018-12-15T06:47:31.154Z,94
2018-12-15T06:48:39.306Z,94
2018-12-15T06:49:41.343Z,94
2018-12-15T06:50:43.361Z,94
2018-12-15T06:51:45.378Z,94
2018-12-15T06:52:47.400Z,94
2018-12-15T06:53:49.434Z,94
2018-12-15T06:54:51.497Z,94
2018-12-15T06:55:53.539Z,94
2018-12-15T06:56:55.570Z,94
2018-12-15T06:57:57.639Z,94
2018-12-15T06:58:59.671Z,94
2018-12-15T07:00:01.718Z,94
2018-12-15T07:01:04.029Z,94
2018-12-15T07:02:06.066Z,94
2018-12-15T07:03:08.152Z,94
2018-12-15T07:04:10.172Z,94
2018-12-15T07:05:12.194Z,94
2018-12-15T07:06:14.250Z,94
2018-12-15T07:07:16.260Z,94
2018-12-15T07:08:18.291Z,94
2018-12-15T07:09:20.318Z,94
2018-12-15T07:10:22.410Z,94
2018-12-15T07:11:24.420Z,94
2018-12-15T07:12:26.440Z,94
2018-12-15T07:13:28.517Z,94
2018-12-15T07:14:30.535Z,94
2018-12-15T07:15:32.568Z,94
2018-12-15T07:16:34.584Z,94
2018-12-15T07:17:38.184Z,94
2018-12-15T07:18:45.736Z,94
2018-12-15T07:19:48.140Z,94
2018-12-15T07:20:50.217Z,94
2018-12-15T07:21:52.524Z,95
2018-12-15T07:22:54.536Z,95
2018-12-15T07:23:56.580Z,95
2018-12-15T07:24:58.669Z,95
2018-12-15T07:26:00.711Z,95
2018-12-15T07:27:03.018Z,95
2018-12-15T07:28:05.037Z,95
2018-12-15T07:29:07.630Z,95
2018-12-15T07:30:09.652Z,95
2018-12-15T07:31:11.665Z,96
2018-12-15T07:32:13.975Z,96
2018-12-15T07:33:15.999Z,96
2018-12-15T07:34:18.035Z,96
2018-12-15T07:35:20.324Z,96
2018-12-15T07:36:22.360Z,97
2018-12-15T07:37:24.375Z,97
2018-12-15T07:38:26.402Z,97
2018-12-15T07:39:29.432Z,98
2018-12-15T07:40:31.450Z,98
2018-12-15T07:41:33.476Z,98
2018-12-15T07:42:35.899Z,98
2018-12-15T07:43:37.924Z,99
2018-12-15T07:44:39.930Z,98
2018-12-15T07:45:41.961Z,98
2018-12-15T07:46:44.329Z,98
2018-12-15T07:47:46.359Z,98
2018-12-15T07:48:52.393Z,98
2018-12-15T07:49:54.694Z,98
2018-12-15T07:50:56.752Z,98
2018-12-15T07:51:59.124Z,98
2018-12-15T07:53:01.140Z,98
2018-12-15T07:54:03.160Z,98
2018-12-15T07:55:05.181Z,99
2018-12-15T07:56:07.195Z,99
2018-12-15T07:57:09.213Z,99
2018-12-15T07:58:11.234Z,99
2018-12-15T07:59:13.261Z,99
2018-12-15T08:00:15.271Z,99
2018-12-15T08:01:17.319Z,99
2018-12-15T08:02:19.345Z,99
2018-12-15T08:03:21.652Z,99
2018-12-15T08:04:23.670Z,99
2018-12-15T08:05:25.702Z,99
2018-12-15T08:06:28.117Z,99
2018-12-15T08:07:30.138Z,98
2018-12-15T08:08:32.155Z,99
2018-12-15T08:09:34.195Z,99
2018-12-15T08:10:36.211Z,99
2018-12-15T08:11:38.512Z,100
2018-12-15T08:12:40.539Z,99
2018-12-15T08:13:42.556Z,98
2018-12-15T08:14:44.873Z,98
2018-12-15T08:15:46.907Z,98
2018-12-15T08:16:48.955Z,98
2018-12-15T08:17:51.525Z,97
2018-12-15T08:18:58.919Z,97
2018-12-15T08:20:00.938Z,97
2018-12-15T08:21:02.956Z,97
2018-12-15T08:22:04.989Z,97
2018-12-15T08:23:07.018Z,97
2018-12-15T08:24:09.043Z,96
2018-12-15T08:25:11.095Z,96
2018-12-15T08:26:13.115Z,95
2018-12-15T08:27:15.132Z,95
2018-12-15T08:28:17.162Z,95
2018-12-15T08:29:19.179Z,95
2018-12-15T08:30:21.206Z,95
2018-12-15T08:31:23.232Z,95
2018-12-15T08:32:25.577Z,95
2018-12-15T08:33:27.586Z,95
2018-12-15T08:34:29.631Z,95
2018-12-15T08:35:31.660Z,95
2018-12-15T08:36:33.681Z,95
2018-12-15T08:37:35.710Z,95
2018-12-15T08:38:38.000Z,94
2018-12-15T08:39:40.085Z,94
2018-12-15T08:40:43.675Z,94
2018-12-15T08:41:45.713Z,94
2018-12-15T08:42:47.732Z,94
2018-12-15T08:43:50.139Z,94
2018-12-15T08:44:52.157Z,94
2018-12-15T08:45:54.175Z,95
2018-12-15T08:46:56.207Z,95
2018-12-15T08:47:58.612Z,95
2018-12-15T08:49:05.549Z,94
2018-12-15T08:50:07.963Z,94
2018-12-15T08:51:10.004Z,94
2018-12-15T08:52:12.020Z,94
2018-12-15T08:53:14.057Z,94
2018-12-15T08:54:16.081Z,94
2018-12-15T08:55:18.213Z,94
2018-12-15T08:56:20.246Z,93
2018-12-15T08:57:22.555Z,93
2018-12-15T08:58:24.568Z,94
2018-12-15T08:59:26.595Z,93
2018-12-15T09:00:28.622Z,93
2018-12-15T09:01:30.922Z,93
2018-12-15T09:02:32.953Z,93
2018-12-15T09:03:34.968Z,93
2018-12-15T09:04:36.995Z,92
2018-12-15T09:05:39.008Z,92
2018-12-15T09:06:41.101Z,92
2018-12-15T09:07:43.111Z,93
2018-12-15T09:08:45.411Z,93
2018-12-15T09:09:47.720Z,92
2018-12-15T09:10:49.734Z,92
2018-12-15T09:11:51.767Z,92
2018-12-15T09:12:53.788Z,92
2018-12-15T09:13:55.812Z,92
2018-12-15T09:14:57.821Z,91
2018-12-15T09:16:00.133Z,91
2018-12-15T09:17:02.441Z,90
2018-12-15T09:18:04.462Z,91
2018-12-15T09:19:12.553Z,91
2018-12-15T09:20:14.579Z,91
2018-12-15T09:21:16.607Z,90
2018-12-15T09:22:18.624Z,91
2018-12-15T09:23:20.667Z,89
2018-12-15T09:24:35.444Z,89
2018-12-15T09:25:37.475Z,88
2018-12-15T09:26:39.506Z,88
2018-12-15T09:27:41.530Z,87
2018-12-15T09:28:43.541Z,86
2018-12-15T09:29:45.958Z,86
2018-12-15T09:30:47.997Z,86
2018-12-15T09:31:50.286Z,85
2018-12-15T09:32:52.310Z,84
2018-12-15T09:33:54.378Z,84
2018-12-15T09:34:56.397Z,84
2018-12-15T09:35:58.431Z,83
2018-12-15T09:37:00.458Z,83
2018-12-15T09:38:02.489Z,85
2018-12-15T09:39:04.515Z,84
2018-12-15T09:40:06.551Z,84
2018-12-15T09:41:08.557Z,81
2018-12-15T09:42:10.589Z,81
2018-12-15T09:43:12.668Z,81
2018-12-15T09:44:14.682Z,81
2018-12-15T09:45:16.720Z,82
2018-12-15T09:46:18.751Z,80
2018-12-15T09:47:20.786Z,81
2018-12-15T09:48:22.800Z,81
2018-12-15T09:49:24.839Z,80
2018-12-15T09:50:26.873Z,78
2018-12-15T09:51:28.899Z,77
2018-12-15T09:52:30.934Z,79
2018-12-15T09:53:33.014Z,79
2018-12-15T09:54:35.040Z,79
2018-12-15T09:55:37.073Z,78
2018-12-15T09:56:39.116Z,77
2018-12-15T09:57:41.130Z,76
2018-12-15T09:58:43.166Z,75
2018-12-15T09:59:45.204Z,75
2018-12-15T10:00:47.513Z,75
2018-12-15T10:01:49.825Z,76
2018-12-15T10:02:51.855Z,75
2018-12-15T10:03:54.765Z,76
2018-12-15T10:04:58.074Z,76
2018-12-15T10:06:00.130Z,75
2018-12-15T10:07:02.168Z,73
2018-12-15T10:08:04.192Z,73
2018-12-15T10:09:06.236Z,72
2018-12-15T10:10:08.653Z,73
2018-12-15T10:11:12.106Z,74
2018-12-15T10:12:16.804Z,75
2018-12-15T10:13:21.603Z,75
2018-12-15T10:14:23.897Z,74
2018-12-15T10:15:26.011Z,76
2018-12-15T10:16:28.055Z,75
2018-12-15T10:17:30.080Z,75
2018-12-15T10:18:32.692Z,74
2018-12-15T10:19:39.574Z,75
2018-12-15T10:20:42.606Z,75
2018-12-15T10:21:44.630Z,76
2018-12-15T10:22:46.665Z,76
2018-12-15T10:23:48.696Z,78
2018-12-15T10:24:53.780Z,79
2018-12-15T10:26:01.001Z,77
2018-12-15T10:27:07.471Z,77
2018-12-15T10:28:18.007Z,78
2018-12-15T10:29:25.325Z,79
2018-12-15T10:30:30.416Z,81
2018-12-15T10:31:39.205Z,81
2018-12-15T10:32:45.785Z,81
2018-12-15T10:33:51.770Z,81
2018-12-15T10:34:54.624Z,81
2018-12-15T10:35:56.655Z,80
2018-12-15T10:36:58.680Z,80
2018-12-15T10:38:00.993Z,80
2018-12-15T10:39:03.008Z,80
2018-12-15T10:40:05.425Z,80
2018-12-15T10:41:07.735Z,81
2018-12-15T10:42:09.768Z,80
2018-12-15T10:43:11.811Z,81
2018-12-15T10:44:13.846Z,81
2018-12-15T10:45:15.866Z,82
2018-12-15T10:46:17.891Z,81
2018-12-15T10:47:19.954Z,81
2018-12-15T10:48:24.092Z,81
2018-12-15T10:49:31.611Z,82
2018-12-15T10:50:33.707Z,82
2018-12-15T10:51:35.799Z,81
2018-12-15T10:52:37.912Z,82
2018-12-15T10:53:40.275Z,81
2018-12-15T10:54:42.310Z,81
2018-12-15T10:55:44.322Z,81
2018-12-15T10:56:46.368Z,82
2018-12-15T10:57:48.773Z,82
2018-12-15T10:58:50.797Z,82
2018-12-15T10:59:52.956Z,82
2018-12-15T11:00:54.972Z,82
2018-12-15T11:01:57.015Z,82
2018-12-15T11:02:59.061Z,81
2018-12-15T11:04:01.796Z,81
2018-12-15T11:05:04.386Z,81
2018-12-15T11:06:06.696Z,82
2018-12-15T11:07:14.701Z,81
2018-12-15T11:08:19.954Z,82
2018-12-15T11:09:22.066Z,81
2018-12-15T11:10:26.584Z,82
2018-12-15T11:11:34.641Z,83
2018-12-15T11:12:43.148Z,82
2018-12-15T11:13:47.192Z,82
2018-12-15T11:14:53.861Z,82
2018-12-15T11:15:57.752Z,82
2018-12-15T11:17:00.551Z,83
2018-12-15T11:18:03.595Z,83
2018-12-15T11:19:10.496Z,82
2018-12-15T11:20:14.364Z,82
2018-12-15T11:21:16.943Z,82
2018-12-15T11:22:19.959Z,82
2018-12-15T11:23:22.022Z,82
2018-12-15T11:24:24.047Z,82
2018-12-15T11:25:26.080Z,81
2018-12-15T11:26:28.170Z,82
2018-12-15T11:27:30.473Z,81
2018-12-15T11:28:32.498Z,80
2018-12-15T11:29:34.541Z,80
2018-12-15T11:30:36.827Z,80
2018-12-15T11:31:38.858Z,80
2018-12-15T11:32:40.882Z,81
2018-12-15T11:33:42.900Z,80
2018-12-15T11:34:44.989Z,80
2018-12-15T11:35:47.025Z,80
2018-12-15T11:36:49.041Z,79
2018-12-15T11:37:51.057Z,80
2018-12-15T11:38:53.096Z,80
2018-12-15T11:39:56.098Z,80
2018-12-15T11:40:58.128Z,80
2018-12-15T11:42:00.206Z,80
2018-12-15T11:43:02.242Z,80
2018-12-15T11:44:04.548Z,80
2018-12-15T11:45:06.579Z,79
2018-12-15T11:46:08.588Z,79
2018-12-15T11:47:10.617Z,79
2018-12-15T11:48:14.228Z,79
2018-12-15T11:49:16.251Z,80
2018-12-15T11:50:18.310Z,79
2018-12-15T11:51:20.608Z,79
2018-12-15T11:52:22.921Z,80
2018-12-15T11:53:24.936Z,80
2018-12-15T11:54:27.338Z,80
2018-12-15T11:55:29.372Z,80
2018-12-15T11:56:31.386Z,80
2018-12-15T11:57:33.402Z,80
2018-12-15T11:58:35.437Z,80
2018-12-15T11:59:37.455Z,80
2018-12-15T12:00:39.863Z,80
2018-12-15T12:01:41.881Z,80
2018-12-15T12:02:43.922Z,80
2018-12-15T12:03:45.931Z,79
2018-12-15T12:04:47.960Z,79
2018-12-15T12:05:49.987Z,79
2018-12-15T12:06:52.440Z,79
2018-12-15T12:07:54.475Z,80
2018-12-15T12:08:56.544Z,80
2018-12-15T12:09:58.559Z,80
2018-12-15T12:11:00.572Z,80
2018-12-15T12:12:02.608Z,80
2018-12-15T12:13:04.688Z,80
2018-12-15T12:14:06.733Z,80
2018-12-15T12:15:08.763Z,80
2018-12-15T12:16:10.783Z,80
2018-12-15T12:17:12.806Z,80
2018-12-15T12:18:14.827Z,80
2018-12-15T12:19:16.833Z,80
2018-12-15T12:20:18.917Z,80
2018-12-15T12:21:20.945Z,79
2018-12-15T12:22:22.966Z,80
2018-12-15T12:23:25.000Z,80
2018-12-15T12:24:27.020Z,80
2018-12-15T12:25:29.040Z,80
2018-12-15T12:26:31.058Z,80
2018-12-15T12:27:33.095Z,80
2018-12-15T12:28:35.493Z,79
2018-12-15T12:29:37.520Z,79
2018-12-15T12:30:39.544Z,79
2018-12-15T12:31:41.567Z,80
2018-12-15T12:32:43.653Z,79
2018-12-15T12:33:45.686Z,80
2018-12-15T12:34:47.707Z,79
2018-12-15T12:35:49.747Z,79
2018-12-15T12:36:52.143Z,79
2018-12-15T12:37:54.461Z,79
2018-12-15T12:38:56.488Z,79
2018-12-15T12:39:58.529Z,79
2018-12-15T12:41:00.559Z,79
2018-12-15T12:42:02.580Z,78
2018-12-15T12:43:04.627Z,78
2018-12-15T12:44:06.646Z,78
2018-12-15T12:45:08.691Z,78
2018-12-15T12:46:10.712Z,78
2018-12-15T12:47:13.032Z,78
2018-12-15T12:48:15.340Z,79
2018-12-15T12:49:17.354Z,79
2018-12-15T12:50:19.386Z,79
2018-12-15T12:51:21.804Z,79
2018-12-15T12:52:23.820Z,79
2018-12-15T12:53:25.845Z,79
2018-12-15T12:54:27.868Z,79
2018-12-15T12:55:29.891Z,79
2018-12-15T12:56:31.925Z,78
2018-12-15T12:57:33.947Z,78
2018-12-15T12:58:35.972Z,79
2018-12-15T12:59:37.987Z,79
2018-12-15T13:00:40.038Z,78
2018-12-15T13:01:42.058Z,78
2018-12-15T13:02:44.106Z,78
2018-12-15T13:03:46.132Z,78
2018-12-15T13:04:48.432Z,78
2018-12-15T13:05:50.525Z,79
2018-12-15T13:06:52.549Z,78
2018-12-15T13:07:54.575Z,78
2018-12-15T13:08:56.587Z,79
2018-12-15T13:09:58.608Z,79
2018-12-15T13:11:00.924Z,80
2018-12-15T13:12:03.617Z,80
2018-12-15T13:13:05.637Z,80
2018-12-15T13:14:07.671Z,80
2018-12-15T13:15:09.689Z,79
2018-12-15T13:16:11.711Z,80
2018-12-15T13:17:13.735Z,80
2018-12-15T13:18:15.768Z,79
2018-12-15T13:19:18.069Z,79
2018-12-15T13:20:20.094Z,79
2018-12-15T13:21:22.120Z,79
2018-12-15T13:22:24.133Z,78
2018-12-15T13:23:26.156Z,78
2018-12-15T13:24:28.185Z,78
2018-12-15T13:25:30.197Z,78
2018-12-15T13:26:32.223Z,78
2018-12-15T13:27:34.257Z,78
2018-12-15T13:28:36.559Z,78
2018-12-15T13:29:38.587Z,78
2018-12-15T13:30:40.991Z,78
2018-12-15T13:31:43.301Z,78
2018-12-15T13:32:45.320Z,78
2018-12-15T13:33:47.363Z,79
2018-12-15T13:34:49.371Z,79
2018-12-15T13:35:51.397Z,79
2018-12-15T13:36:53.441Z,79
2018-12-15T13:37:55.454Z,78
2018-12-15T13:38:57.482Z,79
2018-12-15T13:39:59.499Z,79
2018-12-15T13:41:01.530Z,78
2018-12-15T13:42:03.537Z,78
2018-12-15T13:43:05.581Z,79
2018-12-15T13:44:07.599Z,79
2018-12-15T13:45:09.614Z,79
2018-12-15T13:46:11.691Z,79
2018-12-15T13:47:14.284Z,79
2018-12-15T13:48:16.312Z,79
2018-12-15T13:49:18.646Z,79
2018-12-15T13:50:20.959Z,79
2018-12-15T13:51:22.967Z,79
2018-12-15T13:52:24.999Z,79
2018-12-15T13:53:28.830Z,79
2018-12-15T13:54:30.872Z,79
2018-12-15T13:55:32.907Z,79
2018-12-15T13:56:34.929Z,79
2018-12-15T13:57:36.948Z,79
2018-12-15T13:58:38.986Z,79
2018-12-15T13:59:41.066Z,80
2018-12-15T14:00:43.084Z,80
2018-12-15T14:01:45.110Z,79
2018-12-15T14:02:47.131Z,80
2018-12-15T14:03:49.444Z,80
2018-12-15T14:04:51.469Z,80
2018-12-15T14:05:53.497Z,80
2018-12-15T14:06:55.500Z,80
2018-12-15T14:07:57.535Z,79
2018-12-15T14:08:59.557Z,80
2018-12-15T14:10:01.589Z,80
2018-12-15T14:11:03.911Z,80
2018-12-15T14:12:06.495Z,80
2018-12-15T14:13:08.525Z,80
2018-12-15T14:14:10.547Z,80
2018-12-15T14:15:12.583Z,80
2018-12-15T14:16:14.593Z,80
2018-12-15T14:17:17.008Z,80
2018-12-15T14:18:19.034Z,80
2018-12-15T14:19:21.337Z,81
2018-12-15T14:20:23.366Z,81
2018-12-15T14:21:25.396Z,81
2018-12-15T14:22:27.427Z,81
2018-12-15T14:23:29.443Z,81
2018-12-15T14:24:32.998Z,82
2018-12-15T14:25:35.019Z,81
2018-12-15T14:26:37.040Z,81
2018-12-15T14:27:39.068Z,81
2018-12-15T14:28:41.099Z,81
2018-12-15T14:29:43.420Z,82
2018-12-15T14:30:45.722Z,81
2018-12-15T14:31:47.767Z,81
2018-12-15T14:32:49.892Z,82
2018-12-15T14:33:52.480Z,83
2018-12-15T14:34:54.509Z,82
2018-12-15T14:35:56.531Z,82
2018-12-15T14:36:58.554Z,82